Pagrindinis puslapis
METAR-TAF:

METAR-TAF

Oro uostai :

Point Lay, Aliaska, Jungtinės Amerikos Valstijos

platuma: 69-43N, ilguma: 163-00W, Aukštis: 8 m

Dabartinis oras

Ataskaita buvo paskelbta 26 minutes, ne 06:56 UTC
Vėjas 9 kt iš Pietų
Temperatūra -29°C
Drėgmė 75%
Slėgis 1017 hPa
Matomumas: 16.1 km
Mažai debesys ne aukštis 6000 ft
Su prošvaistėmis ne aukštis 7500 ft
Apsiniaukę ne aukštis 9500 ft

METAR: PPIZ 280656Z AUTO 18009KT 10SM FEW060 BKN075 OVC095 M29/M32 A3002 RMK AO2 SLP170 T12941322 FZRANO

Laikas: 22:22 (07:22 UTC)


TAF: trūkstamas

Orai ataskaitas ir orų prognozės (METAR, TAF).

turimą stotys yra geltonos ir raudonos taškus žemėlapyje.

Perkelti pele per norėdami pamatyti stoties vardą.

Tada spustelėkite, norėdami matyti oro stebėjimo ir prognozės.

Norėdami pakeisti žemėlapį: spustelėkite ant žalios mygtukų su juodo kryžiaus žemyn,; žalią mygtuką su brūkšneliu, jei norite nutolinti; arba žalių rodyklių gretimoms žemėlapius.


METAR-TAF: